sensor_id;sensor_type;location;lat;lon;timestamp;P1;durP1;ratioP1;P2;durP2;ratioP2
55706;SDS011;41608;45.384;20.394;2022-10-16T00:00:03;12.63;;;7.32;;
55706;SDS011;41608;45.384;20.394;2022-10-16T00:02:29;12.07;;;6.85;;
55706;SDS011;41608;45.384;20.394;2022-10-16T00:04:55;9.93;;;6.35;;
55706;SDS011;41608;45.384;20.394;2022-10-16T00:07:21;11.60;;;6.13;;
55706;SDS011;41608;45.384;20.394;2022-10-16T00:09:47;11.63;;;7.68;;
55706;SDS011;41608;45.384;20.394;2022-10-16T00:12:13;10.43;;;5.75;;
55706;SDS011;41608;45.384;20.394;2022-10-16T00:14:39;10.18;;;6.43;;
55706;SDS011;41608;45.384;20.394;2022-10-16T00:17:06;15.98;;;6.60;;
55706;SDS011;41608;45.384;20.394;2022-10-16T00:19:32;12.35;;;7.03;;
55706;SDS011;41608;45.384;20.394;2022-10-16T00:21:58;9.07;;;7.25;;
55706;SDS011;41608;45.384;20.394;2022-10-16T00:24:24;9.38;;;6.85;;
55706;SDS011;41608;45.384;20.394;2022-10-16T00:26:50;9.00;;;5.57;;
55706;SDS011;41608;45.384;20.394;2022-10-16T00:29:17;9.88;;;6.97;;
55706;SDS011;41608;45.384;20.394;2022-10-16T00:31:45;11.40;;;7.38;;
55706;SDS011;41608;45.384;20.394;2022-10-16T00:34:13;10.30;;;6.18;;
55706;SDS011;41608;45.384;20.394;2022-10-16T00:36:39;9.30;;;6.82;;
55706;SDS011;41608;45.384;20.394;2022-10-16T00:39:05;11.07;;;7.95;;
55706;SDS011;41608;45.384;20.394;2022-10-16T00:41:34;9.85;;;6.10;;
55706;SDS011;41608;45.384;20.394;2022-10-16T00:44:01;11.30;;;6.25;;
55706;SDS011;41608;45.384;20.394;2022-10-16T00:46:42;10.45;;;6.35;;
55706;SDS011;41608;45.384;20.394;2022-10-16T00:49:12;12.55;;;7.63;;
55706;SDS011;41608;45.384;20.394;2022-10-16T00:51:42;9.88;;;6.75;;
55706;SDS011;41608;45.384;20.394;2022-10-16T00:54:25;11.95;;;7.63;;
55706;SDS011;41608;45.384;20.394;2022-10-16T00:56:52;12.98;;;6.57;;
55706;SDS011;41608;45.384;20.394;2022-10-16T00:59:23;12.25;;;6.43;;
55706;SDS011;41608;45.384;20.394;2022-10-16T01:01:51;10.63;;;7.00;;
55706;SDS011;41608;45.384;20.394;2022-10-16T01:04:19;12.55;;;7.22;;
55706;SDS011;41608;45.384;20.394;2022-10-16T01:06:49;13.25;;;7.18;;
55706;SDS011;41608;45.384;20.394;2022-10-16T01:12:10;12.07;;;7.95;;
55706;SDS011;41608;45.384;20.394;2022-10-16T01:14:54;12.43;;;7.95;;
55706;SDS011;41608;45.384;20.394;2022-10-16T01:17:23;15.70;;;6.65;;
55706;SDS011;41608;45.384;20.394;2022-10-16T01:20:11;11.77;;;7.07;;
55706;SDS011;41608;45.384;20.394;2022-10-16T01:22:45;11.80;;;6.85;;
55706;SDS011;41608;45.384;20.394;2022-10-16T01:25:17;10.65;;;6.15;;
55706;SDS011;41608;45.384;20.394;2022-10-16T01:27:45;11.90;;;7.72;;
55706;SDS011;41608;45.384;20.394;2022-10-16T01:30:23;11.38;;;6.40;;
55706;SDS011;41608;45.384;20.394;2022-10-16T01:33:01;14.95;;;7.22;;
55706;SDS011;41608;45.384;20.394;2022-10-16T01:35:35;10.23;;;7.50;;
55706;SDS011;41608;45.384;20.394;2022-10-16T01:40:28;11.80;;;7.50;;
55706;SDS011;41608;45.384;20.394;2022-10-16T01:42:56;11.73;;;7.95;;
55706;SDS011;41608;45.384;20.394;2022-10-16T01:45:26;14.02;;;7.28;;
55706;SDS011;41608;45.384;20.394;2022-10-16T01:47:54;12.98;;;8.80;;
55706;SDS011;41608;45.384;20.394;2022-10-16T01:50:20;12.23;;;7.35;;
55706;SDS011;41608;45.384;20.394;2022-10-16T01:52:48;13.23;;;8.98;;
55706;SDS011;41608;45.384;20.394;2022-10-16T01:55:18;16.20;;;7.85;;
55706;SDS011;41608;45.384;20.394;2022-10-16T01:57:46;11.50;;;7.80;;
55706;SDS011;41608;45.384;20.394;2022-10-16T02:00:16;13.82;;;7.95;;
55706;SDS011;41608;45.384;20.394;2022-10-16T02:02:46;17.77;;;10.48;;
55706;SDS011;41608;45.384;20.394;2022-10-16T02:07:49;13.52;;;9.38;;
55706;SDS011;41608;45.384;20.394;2022-10-16T02:10:15;15.23;;;9.75;;
55706;SDS011;41608;45.384;20.394;2022-10-16T02:12:43;13.98;;;8.57;;
55706;SDS011;41608;45.384;20.394;2022-10-16T02:15:10;14.55;;;8.13;;
55706;SDS011;41608;45.384;20.394;2022-10-16T02:17:36;13.32;;;8.30;;
55706;SDS011;41608;45.384;20.394;2022-10-16T02:20:03;15.52;;;7.63;;
55706;SDS011;41608;45.384;20.394;2022-10-16T02:22:34;11.55;;;7.00;;
55706;SDS011;41608;45.384;20.394;2022-10-16T02:32:48;11.77;;;6.95;;
55706;SDS011;41608;45.384;20.394;2022-10-16T02:35:15;11.90;;;7.43;;
55706;SDS011;41608;45.384;20.394;2022-10-16T02:37:45;11.90;;;8.10;;
55706;SDS011;41608;45.384;20.394;2022-10-16T02:40:12;14.00;;;7.82;;
55706;SDS011;41608;45.384;20.394;2022-10-16T02:42:39;14.35;;;7.53;;
55706;SDS011;41608;45.384;20.394;2022-10-16T02:45:06;13.60;;;7.65;;
55706;SDS011;41608;45.384;20.394;2022-10-16T02:47:32;12.10;;;7.43;;
55706;SDS011;41608;45.384;20.394;2022-10-16T02:50:01;11.35;;;7.22;;
55706;SDS011;41608;45.384;20.394;2022-10-16T02:52:27;14.88;;;8.55;;
55706;SDS011;41608;45.384;20.394;2022-10-16T02:54:53;10.77;;;7.35;;
55706;SDS011;41608;45.384;20.394;2022-10-16T02:57:19;10.35;;;7.60;;
55706;SDS011;41608;45.384;20.394;2022-10-16T02:59:45;11.07;;;8.18;;
55706;SDS011;41608;45.384;20.394;2022-10-16T03:02:11;10.65;;;7.68;;
55706;SDS011;41608;45.384;20.394;2022-10-16T03:04:37;13.23;;;8.95;;
55706;SDS011;41608;45.384;20.394;2022-10-16T03:07:03;13.30;;;9.10;;
55706;SDS011;41608;45.384;20.394;2022-10-16T03:09:29;13.93;;;7.88;;
55706;SDS011;41608;45.384;20.394;2022-10-16T03:11:55;14.68;;;8.63;;
55706;SDS011;41608;45.384;20.394;2022-10-16T03:14:24;12.15;;;8.07;;
55706;SDS011;41608;45.384;20.394;2022-10-16T03:16:50;17.38;;;9.02;;
55706;SDS011;41608;45.384;20.394;2022-10-16T03:19:16;13.38;;;8.50;;
55706;SDS011;41608;45.384;20.394;2022-10-16T03:21:43;10.73;;;8.35;;
55706;SDS011;41608;45.384;20.394;2022-10-16T03:24:09;14.95;;;8.15;;
55706;SDS011;41608;45.384;20.394;2022-10-16T03:26:35;11.90;;;6.68;;
55706;SDS011;41608;45.384;20.394;2022-10-16T03:29:02;13.40;;;7.80;;
55706;SDS011;41608;45.384;20.394;2022-10-16T03:31:28;12.02;;;8.68;;
55706;SDS011;41608;45.384;20.394;2022-10-16T03:33:54;15.52;;;8.32;;
55706;SDS011;41608;45.384;20.394;2022-10-16T03:36:20;12.88;;;6.95;;
55706;SDS011;41608;45.384;20.394;2022-10-16T03:38:46;14.13;;;8.27;;
55706;SDS011;41608;45.384;20.394;2022-10-16T03:41:13;16.70;;;7.43;;
55706;SDS011;41608;45.384;20.394;2022-10-16T03:43:39;10.90;;;8.75;;
55706;SDS011;41608;45.384;20.394;2022-10-16T03:46:05;23.52;;;8.65;;
55706;SDS011;41608;45.384;20.394;2022-10-16T03:48:31;13.30;;;8.30;;
55706;SDS011;41608;45.384;20.394;2022-10-16T03:51:02;16.25;;;9.15;;
55706;SDS011;41608;45.384;20.394;2022-10-16T03:53:28;16.73;;;7.68;;
55706;SDS011;41608;45.384;20.394;2022-10-16T03:55:54;10.55;;;8.43;;
55706;SDS011;41608;45.384;20.394;2022-10-16T03:58:20;16.15;;;8.73;;
55706;SDS011;41608;45.384;20.394;2022-10-16T04:00:46;11.13;;;8.32;;
55706;SDS011;41608;45.384;20.394;2022-10-16T04:03:13;16.08;;;8.38;;
55706;SDS011;41608;45.384;20.394;2022-10-16T04:05:43;14.05;;;8.95;;
55706;SDS011;41608;45.384;20.394;2022-10-16T04:08:10;15.38;;;7.90;;
55706;SDS011;41608;45.384;20.394;2022-10-16T04:10:38;11.82;;;7.90;;
55706;SDS011;41608;45.384;20.394;2022-10-16T04:13:05;12.73;;;8.32;;
55706;SDS011;41608;45.384;20.394;2022-10-16T04:15:31;14.63;;;8.43;;
55706;SDS011;41608;45.384;20.394;2022-10-16T04:17:57;14.50;;;8.95;;
55706;SDS011;41608;45.384;20.394;2022-10-16T04:20:23;13.20;;;8.07;;
55706;SDS011;41608;45.384;20.394;2022-10-16T04:22:49;14.18;;;9.07;;
55706;SDS011;41608;45.384;20.394;2022-10-16T04:25:15;21.63;;;8.82;;
55706;SDS011;41608;45.384;20.394;2022-10-16T04:27:41;12.30;;;7.35;;
55706;SDS011;41608;45.384;20.394;2022-10-16T04:30:09;12.40;;;8.68;;
55706;SDS011;41608;45.384;20.394;2022-10-16T04:32:35;18.33;;;7.88;;
55706;SDS011;41608;45.384;20.394;2022-10-16T04:35:02;13.80;;;8.20;;
55706;SDS011;41608;45.384;20.394;2022-10-16T04:37:28;13.25;;;7.88;;
55706;SDS011;41608;45.384;20.394;2022-10-16T04:39:54;15.77;;;8.73;;
55706;SDS011;41608;45.384;20.394;2022-10-16T04:42:20;12.65;;;9.05;;
55706;SDS011;41608;45.384;20.394;2022-10-16T04:44:46;11.55;;;7.28;;
55706;SDS011;41608;45.384;20.394;2022-10-16T04:47:13;13.15;;;8.25;;
55706;SDS011;41608;45.384;20.394;2022-10-16T04:49:39;16.20;;;9.32;;
55706;SDS011;41608;45.384;20.394;2022-10-16T04:52:07;14.73;;;9.13;;
55706;SDS011;41608;45.384;20.394;2022-10-16T04:54:34;12.38;;;9.02;;
55706;SDS011;41608;45.384;20.394;2022-10-16T04:57:00;14.85;;;9.68;;
55706;SDS011;41608;45.384;20.394;2022-10-16T04:59:27;11.90;;;8.35;;
55706;SDS011;41608;45.384;20.394;2022-10-16T05:01:53;11.18;;;8.55;;
55706;SDS011;41608;45.384;20.394;2022-10-16T05:04:19;15.23;;;9.43;;
55706;SDS011;41608;45.384;20.394;2022-10-16T05:06:45;12.32;;;9.27;;
55706;SDS011;41608;45.384;20.394;2022-10-16T05:09:14;13.85;;;9.38;;
55706;SDS011;41608;45.384;20.394;2022-10-16T05:11:40;17.52;;;9.65;;
55706;SDS011;41608;45.384;20.394;2022-10-16T05:14:06;16.10;;;10.00;;
55706;SDS011;41608;45.384;20.394;2022-10-16T05:16:32;13.60;;;9.27;;
55706;SDS011;41608;45.384;20.394;2022-10-16T05:18:58;15.68;;;9.35;;
55706;SDS011;41608;45.384;20.394;2022-10-16T05:21:24;15.20;;;9.40;;
55706;SDS011;41608;45.384;20.394;2022-10-16T05:23:50;16.25;;;9.35;;
55706;SDS011;41608;45.384;20.394;2022-10-16T05:26:16;17.60;;;9.27;;
55706;SDS011;41608;45.384;20.394;2022-10-16T05:28:42;13.95;;;9.32;;
55706;SDS011;41608;45.384;20.394;2022-10-16T05:31:13;17.38;;;9.52;;
55706;SDS011;41608;45.384;20.394;2022-10-16T05:33:39;20.92;;;10.02;;
55706;SDS011;41608;45.384;20.394;2022-10-16T05:36:05;16.90;;;9.00;;
55706;SDS011;41608;45.384;20.394;2022-10-16T05:38:32;18.88;;;10.02;;
55706;SDS011;41608;45.384;20.394;2022-10-16T05:40:59;13.77;;;10.55;;
55706;SDS011;41608;45.384;20.394;2022-10-16T05:43:26;21.88;;;9.95;;
55706;SDS011;41608;45.384;20.394;2022-10-16T05:45:55;10.60;;;8.52;;
55706;SDS011;41608;45.384;20.394;2022-10-16T05:48:21;11.75;;;9.45;;
55706;SDS011;41608;45.384;20.394;2022-10-16T05:50:48;13.70;;;9.23;;
55706;SDS011;41608;45.384;20.394;2022-10-16T05:53:14;13.43;;;8.65;;
55706;SDS011;41608;45.384;20.394;2022-10-16T05:55:40;11.30;;;7.65;;
55706;SDS011;41608;45.384;20.394;2022-10-16T05:58:06;18.08;;;9.13;;
55706;SDS011;41608;45.384;20.394;2022-10-16T06:00:32;12.23;;;9.00;;
55706;SDS011;41608;45.384;20.394;2022-10-16T06:02:58;15.52;;;8.40;;
55706;SDS011;41608;45.384;20.394;2022-10-16T06:05:25;13.02;;;8.10;;
55706;SDS011;41608;45.384;20.394;2022-10-16T06:07:51;17.83;;;7.95;;
55706;SDS011;41608;45.384;20.394;2022-10-16T06:10:20;16.48;;;7.78;;
55706;SDS011;41608;45.384;20.394;2022-10-16T06:12:46;15.13;;;7.72;;
55706;SDS011;41608;45.384;20.394;2022-10-16T06:15:12;10.43;;;7.15;;
55706;SDS011;41608;45.384;20.394;2022-10-16T06:17:40;15.98;;;8.02;;
55706;SDS011;41608;45.384;20.394;2022-10-16T06:20:06;13.48;;;7.82;;
55706;SDS011;41608;45.384;20.394;2022-10-16T06:22:33;9.70;;;7.18;;
55706;SDS011;41608;45.384;20.394;2022-10-16T06:24:59;11.70;;;7.00;;
55706;SDS011;41608;45.384;20.394;2022-10-16T06:27:25;12.35;;;7.85;;
55706;SDS011;41608;45.384;20.394;2022-10-16T06:29:51;15.77;;;7.78;;
55706;SDS011;41608;45.384;20.394;2022-10-16T06:32:17;11.50;;;7.50;;
55706;SDS011;41608;45.384;20.394;2022-10-16T06:34:43;10.80;;;7.25;;
55706;SDS011;41608;45.384;20.394;2022-10-16T06:37:11;11.23;;;7.93;;
55706;SDS011;41608;45.384;20.394;2022-10-16T06:39:37;14.68;;;8.45;;
55706;SDS011;41608;45.384;20.394;2022-10-16T06:42:04;11.82;;;7.80;;
55706;SDS011;41608;45.384;20.394;2022-10-16T06:44:30;13.35;;;7.65;;
55706;SDS011;41608;45.384;20.394;2022-10-16T06:46:56;10.07;;;6.38;;
55706;SDS011;41608;45.384;20.394;2022-10-16T06:49:22;11.25;;;7.57;;
55706;SDS011;41608;45.384;20.394;2022-10-16T06:51:48;16.73;;;7.15;;
55706;SDS011;41608;45.384;20.394;2022-10-16T06:54:15;12.63;;;7.15;;
55706;SDS011;41608;45.384;20.394;2022-10-16T06:56:43;12.88;;;7.10;;
55706;SDS011;41608;45.384;20.394;2022-10-16T06:59:10;8.40;;;6.47;;
55706;SDS011;41608;45.384;20.394;2022-10-16T07:01:36;16.42;;;7.20;;
55706;SDS011;41608;45.384;20.394;2022-10-16T07:04:03;15.25;;;6.57;;
55706;SDS011;41608;45.384;20.394;2022-10-16T07:06:30;12.02;;;6.13;;
55706;SDS011;41608;45.384;20.394;2022-10-16T07:08:57;11.50;;;6.57;;
55706;SDS011;41608;45.384;20.394;2022-10-16T07:11:24;13.07;;;7.15;;
55706;SDS011;41608;45.384;20.394;2022-10-16T07:13:50;10.88;;;5.90;;
55706;SDS011;41608;45.384;20.394;2022-10-16T07:16:17;13.05;;;6.35;;
55706;SDS011;41608;45.384;20.394;2022-10-16T07:18:44;11.57;;;6.07;;
55706;SDS011;41608;45.384;20.394;2022-10-16T07:21:12;10.20;;;6.15;;
55706;SDS011;41608;45.384;20.394;2022-10-16T07:23:39;9.77;;;6.10;;
55706;SDS011;41608;45.384;20.394;2022-10-16T07:26:12;14.48;;;8.25;;
55706;SDS011;41608;45.384;20.394;2022-10-16T07:28:39;10.02;;;5.30;;
55706;SDS011;41608;45.384;20.394;2022-10-16T07:31:07;8.55;;;5.95;;
55706;SDS011;41608;45.384;20.394;2022-10-16T07:33:33;12.23;;;7.43;;
55706;SDS011;41608;45.384;20.394;2022-10-16T07:36:00;13.20;;;7.03;;
55706;SDS011;41608;45.384;20.394;2022-10-16T07:38:26;11.27;;;5.97;;
55706;SDS011;41608;45.384;20.394;2022-10-16T07:41:00;8.27;;;5.68;;
55706;SDS011;41608;45.384;20.394;2022-10-16T07:43:26;8.30;;;5.70;;
55706;SDS011;41608;45.384;20.394;2022-10-16T07:45:52;15.77;;;6.18;;
55706;SDS011;41608;45.384;20.394;2022-10-16T07:48:19;8.73;;;4.47;;
55706;SDS011;41608;45.384;20.394;2022-10-16T07:50:45;8.63;;;5.75;;
55706;SDS011;41608;45.384;20.394;2022-10-16T07:53:12;12.32;;;5.40;;
55706;SDS011;41608;45.384;20.394;2022-10-16T07:55:38;8.77;;;5.80;;
55706;SDS011;41608;45.384;20.394;2022-10-16T07:58:04;9.30;;;5.45;;
55706;SDS011;41608;45.384;20.394;2022-10-16T08:00:31;12.15;;;5.30;;
55706;SDS011;41608;45.384;20.394;2022-10-16T08:02:57;9.07;;;5.25;;
55706;SDS011;41608;45.384;20.394;2022-10-16T08:05:27;10.02;;;6.70;;
55706;SDS011;41608;45.384;20.394;2022-10-16T08:07:53;10.90;;;5.82;;
55706;SDS011;41608;45.384;20.394;2022-10-16T08:10:20;8.25;;;5.25;;
55706;SDS011;41608;45.384;20.394;2022-10-16T08:12:46;13.30;;;5.30;;
55706;SDS011;41608;45.384;20.394;2022-10-16T08:15:12;11.90;;;5.47;;
55706;SDS011;41608;45.384;20.394;2022-10-16T08:17:38;8.25;;;4.85;;
55706;SDS011;41608;45.384;20.394;2022-10-16T08:20:05;13.73;;;5.55;;
55706;SDS011;41608;45.384;20.394;2022-10-16T08:22:31;11.25;;;5.50;;
55706;SDS011;41608;45.384;20.394;2022-10-16T08:24:57;12.85;;;5.82;;
55706;SDS011;41608;45.384;20.394;2022-10-16T08:27:23;8.55;;;4.70;;
55706;SDS011;41608;45.384;20.394;2022-10-16T08:29:49;7.20;;;4.63;;
55706;SDS011;41608;45.384;20.394;2022-10-16T08:32:15;11.35;;;4.88;;
55706;SDS011;41608;45.384;20.394;2022-10-16T08:34:41;12.35;;;4.32;;
55706;SDS011;41608;45.384;20.394;2022-10-16T08:37:08;9.43;;;5.65;;
55706;SDS011;41608;45.384;20.394;2022-10-16T08:39:36;8.27;;;4.88;;
55706;SDS011;41608;45.384;20.394;2022-10-16T08:47:16;10.55;;;5.47;;
55706;SDS011;41608;45.384;20.394;2022-10-16T08:49:47;10.30;;;4.30;;
55706;SDS011;41608;45.384;20.394;2022-10-16T08:52:16;11.55;;;4.90;;
55706;SDS011;41608;45.384;20.394;2022-10-16T08:54:43;11.20;;;4.57;;
55706;SDS011;41608;45.384;20.394;2022-10-16T08:57:12;14.70;;;5.30;;
55706;SDS011;41608;45.384;20.394;2022-10-16T08:59:39;15.40;;;5.03;;
55706;SDS011;41608;45.384;20.394;2022-10-16T09:02:16;7.40;;;4.63;;
55706;SDS011;41608;45.384;20.394;2022-10-16T09:23:08;11.02;;;5.40;;
55706;SDS011;41608;45.384;20.394;2022-10-16T09:25:36;7.43;;;5.22;;
55706;SDS011;41608;45.384;20.394;2022-10-16T09:28:04;9.18;;;4.22;;
55706;SDS011;41608;45.384;20.394;2022-10-16T09:30:30;6.47;;;3.95;;
55706;SDS011;41608;45.384;20.394;2022-10-16T09:32:57;6.85;;;4.55;;
55706;SDS011;41608;45.384;20.394;2022-10-16T09:35:30;11.52;;;5.65;;
55706;SDS011;41608;45.384;20.394;2022-10-16T09:37:57;10.57;;;5.13;;
55706;SDS011;41608;45.384;20.394;2022-10-16T09:40:27;9.93;;;5.47;;
55706;SDS011;41608;45.384;20.394;2022-10-16T09:45:41;11.93;;;5.03;;
55706;SDS011;41608;45.384;20.394;2022-10-16T09:48:11;13.23;;;5.60;;
55706;SDS011;41608;45.384;20.394;2022-10-16T09:50:38;6.78;;;4.18;;
55706;SDS011;41608;45.384;20.394;2022-10-16T09:53:05;8.45;;;5.15;;
55706;SDS011;41608;45.384;20.394;2022-10-16T09:55:33;9.40;;;5.47;;
55706;SDS011;41608;45.384;20.394;2022-10-16T09:57:59;16.90;;;5.75;;
55706;SDS011;41608;45.384;20.394;2022-10-16T10:00:25;8.65;;;5.53;;
55706;SDS011;41608;45.384;20.394;2022-10-16T10:02:52;11.05;;;5.28;;
55706;SDS011;41608;45.384;20.394;2022-10-16T10:05:24;7.88;;;5.03;;
55706;SDS011;41608;45.384;20.394;2022-10-16T10:08:00;8.23;;;5.05;;
55706;SDS011;41608;45.384;20.394;2022-10-16T10:10:31;12.18;;;6.30;;
55706;SDS011;41608;45.384;20.394;2022-10-16T10:12:58;8.73;;;5.72;;
55706;SDS011;41608;45.384;20.394;2022-10-16T10:15:24;12.75;;;5.18;;
55706;SDS011;41608;45.384;20.394;2022-10-16T10:17:55;9.77;;;5.47;;
55706;SDS011;41608;45.384;20.394;2022-10-16T10:20:23;8.80;;;5.00;;
55706;SDS011;41608;45.384;20.394;2022-10-16T10:22:50;7.18;;;5.32;;
55706;SDS011;41608;45.384;20.394;2022-10-16T10:27:51;6.82;;;4.93;;
55706;SDS011;41608;45.384;20.394;2022-10-16T10:30:21;9.10;;;5.07;;
55706;SDS011;41608;45.384;20.394;2022-10-16T10:38:06;6.72;;;4.93;;
55706;SDS011;41608;45.384;20.394;2022-10-16T10:46:04;9.98;;;4.60;;
55706;SDS011;41608;45.384;20.394;2022-10-16T10:51:31;11.88;;;5.18;;
55706;SDS011;41608;45.384;20.394;2022-10-16T10:57:02;8.85;;;4.53;;
55706;SDS011;41608;45.384;20.394;2022-10-16T10:59:42;7.25;;;4.60;;
55706;SDS011;41608;45.384;20.394;2022-10-16T11:04:46;7.65;;;5.13;;
55706;SDS011;41608;45.384;20.394;2022-10-16T11:07:26;10.10;;;4.80;;
55706;SDS011;41608;45.384;20.394;2022-10-16T11:10:02;5.70;;;4.00;;
55706;SDS011;41608;45.384;20.394;2022-10-16T11:15:07;8.38;;;5.00;;
55706;SDS011;41608;45.384;20.394;2022-10-16T11:17:38;7.78;;;4.57;;
55706;SDS011;41608;45.384;20.394;2022-10-16T11:20:12;8.43;;;4.35;;
55706;SDS011;41608;45.384;20.394;2022-10-16T11:22:40;8.70;;;4.95;;
55706;SDS011;41608;45.384;20.394;2022-10-16T11:27:44;8.77;;;5.28;;
55706;SDS011;41608;45.384;20.394;2022-10-16T11:30:18;7.40;;;4.93;;
55706;SDS011;41608;45.384;20.394;2022-10-16T11:32:50;7.80;;;4.50;;
55706;SDS011;41608;45.384;20.394;2022-10-16T11:35:21;11.60;;;4.85;;
55706;SDS011;41608;45.384;20.394;2022-10-16T11:37:49;7.45;;;5.32;;
55706;SDS011;41608;45.384;20.394;2022-10-16T11:40:19;9.10;;;4.65;;
55706;SDS011;41608;45.384;20.394;2022-10-16T11:42:50;8.55;;;4.38;;
55706;SDS011;41608;45.384;20.394;2022-10-16T11:45:34;5.60;;;4.20;;
55706;SDS011;41608;45.384;20.394;2022-10-16T11:48:08;8.43;;;3.50;;
55706;SDS011;41608;45.384;20.394;2022-10-16T11:50:39;7.20;;;4.00;;
55706;SDS011;41608;45.384;20.394;2022-10-16T11:53:15;7.85;;;3.97;;
55706;SDS011;41608;45.384;20.394;2022-10-16T11:55:43;9.43;;;4.15;;
55706;SDS011;41608;45.384;20.394;2022-10-16T11:58:22;10.65;;;5.20;;
55706;SDS011;41608;45.384;20.394;2022-10-16T12:03:39;6.32;;;3.90;;
55706;SDS011;41608;45.384;20.394;2022-10-16T12:06:11;6.40;;;3.50;;
55706;SDS011;41608;45.384;20.394;2022-10-16T12:08:40;7.78;;;3.75;;
55706;SDS011;41608;45.384;20.394;2022-10-16T12:11:19;10.93;;;4.55;;
55706;SDS011;41608;45.384;20.394;2022-10-16T12:13:48;8.23;;;4.22;;
55706;SDS011;41608;45.384;20.394;2022-10-16T12:18:44;5.38;;;4.00;;
55706;SDS011;41608;45.384;20.394;2022-10-16T12:21:11;6.25;;;3.80;;
55706;SDS011;41608;45.384;20.394;2022-10-16T12:23:47;9.93;;;3.83;;
55706;SDS011;41608;45.384;20.394;2022-10-16T12:26:14;7.50;;;3.70;;
55706;SDS011;41608;45.384;20.394;2022-10-16T12:28:49;6.77;;;3.07;;
55706;SDS011;41608;45.384;20.394;2022-10-16T12:31:16;8.25;;;4.13;;
55706;SDS011;41608;45.384;20.394;2022-10-16T12:36:27;8.93;;;4.15;;
55706;SDS011;41608;45.384;20.394;2022-10-16T12:38:54;14.70;;;5.28;;
55706;SDS011;41608;45.384;20.394;2022-10-16T12:41:28;10.90;;;4.47;;
55706;SDS011;41608;45.384;20.394;2022-10-16T12:43:57;12.27;;;5.15;;
55706;SDS011;41608;45.384;20.394;2022-10-16T12:51:39;8.30;;;4.50;;
55706;SDS011;41608;45.384;20.394;2022-10-16T12:56:57;9.70;;;5.07;;
55706;SDS011;41608;45.384;20.394;2022-10-16T13:16:59;8.80;;;4.70;;
55706;SDS011;41608;45.384;20.394;2022-10-16T13:20:05;10.40;;;4.07;;
55706;SDS011;41608;45.384;20.394;2022-10-16T13:29:54;12.43;;;5.85;;
55706;SDS011;41608;45.384;20.394;2022-10-16T13:32:25;11.40;;;4.95;;
55706;SDS011;41608;45.384;20.394;2022-10-16T13:34:52;6.53;;;3.65;;
55706;SDS011;41608;45.384;20.394;2022-10-16T13:37:19;7.40;;;3.78;;
55706;SDS011;41608;45.384;20.394;2022-10-16T13:39:46;6.32;;;3.92;;
55706;SDS011;41608;45.384;20.394;2022-10-16T13:44:44;6.82;;;3.80;;
55706;SDS011;41608;45.384;20.394;2022-10-16T13:47:14;8.30;;;4.85;;
55706;SDS011;41608;45.384;20.394;2022-10-16T13:49:40;11.27;;;4.90;;
55706;SDS011;41608;45.384;20.394;2022-10-16T13:52:15;9.50;;;5.00;;
55706;SDS011;41608;45.384;20.394;2022-10-16T13:54:42;7.97;;;4.45;;
55706;SDS011;41608;45.384;20.394;2022-10-16T13:57:08;5.93;;;3.60;;
55706;SDS011;41608;45.384;20.394;2022-10-16T13:59:35;6.25;;;3.58;;
55706;SDS011;41608;45.384;20.394;2022-10-16T14:02:05;10.00;;;4.50;;
55706;SDS011;41608;45.384;20.394;2022-10-16T14:04:37;9.35;;;3.50;;
55706;SDS011;41608;45.384;20.394;2022-10-16T14:07:04;8.45;;;3.95;;
55706;SDS011;41608;45.384;20.394;2022-10-16T14:09:30;10.15;;;4.18;;
55706;SDS011;41608;45.384;20.394;2022-10-16T14:11:57;8.90;;;4.03;;
55706;SDS011;41608;45.384;20.394;2022-10-16T14:14:24;12.70;;;5.13;;
55706;SDS011;41608;45.384;20.394;2022-10-16T14:16:52;10.02;;;4.47;;
55706;SDS011;41608;45.384;20.394;2022-10-16T14:19:20;9.23;;;3.90;;
55706;SDS011;41608;45.384;20.394;2022-10-16T14:21:48;7.10;;;4.20;;
55706;SDS011;41608;45.384;20.394;2022-10-16T14:26:49;9.50;;;4.53;;
55706;SDS011;41608;45.384;20.394;2022-10-16T14:29:19;7.63;;;4.40;;
55706;SDS011;41608;45.384;20.394;2022-10-16T14:31:58;10.18;;;4.45;;
55706;SDS011;41608;45.384;20.394;2022-10-16T14:36:52;10.10;;;5.72;;
55706;SDS011;41608;45.384;20.394;2022-10-16T14:39:21;7.28;;;4.45;;
55706;SDS011;41608;45.384;20.394;2022-10-16T14:41:51;7.00;;;4.68;;
55706;SDS011;41608;45.384;20.394;2022-10-16T14:44:18;8.05;;;3.95;;
55706;SDS011;41608;45.384;20.394;2022-10-16T14:46:44;8.63;;;3.97;;
55706;SDS011;41608;45.384;20.394;2022-10-16T14:51:37;12.18;;;4.80;;
55706;SDS011;41608;45.384;20.394;2022-10-16T14:54:07;8.73;;;4.15;;
55706;SDS011;41608;45.384;20.394;2022-10-16T14:56:35;6.57;;;4.20;;
55706;SDS011;41608;45.384;20.394;2022-10-16T14:59:12;15.65;;;4.65;;
55706;SDS011;41608;45.384;20.394;2022-10-16T15:01:42;8.05;;;4.00;;
55706;SDS011;41608;45.384;20.394;2022-10-16T15:04:11;6.57;;;4.32;;
55706;SDS011;41608;45.384;20.394;2022-10-16T15:06:37;6.65;;;3.75;;
55706;SDS011;41608;45.384;20.394;2022-10-16T15:09:03;13.13;;;4.93;;
55706;SDS011;41608;45.384;20.394;2022-10-16T15:11:30;8.82;;;5.10;;
55706;SDS011;41608;45.384;20.394;2022-10-16T15:13:57;12.50;;;4.75;;
55706;SDS011;41608;45.384;20.394;2022-10-16T15:16:24;10.57;;;4.65;;
55706;SDS011;41608;45.384;20.394;2022-10-16T15:18:50;16.75;;;7.93;;
55706;SDS011;41608;45.384;20.394;2022-10-16T15:21:24;11.30;;;5.80;;
55706;SDS011;41608;45.384;20.394;2022-10-16T15:23:52;17.03;;;6.37;;
55706;SDS011;41608;45.384;20.394;2022-10-16T15:26:18;14.93;;;6.80;;
55706;SDS011;41608;45.384;20.394;2022-10-16T15:28:44;14.82;;;7.18;;
55706;SDS011;41608;45.384;20.394;2022-10-16T15:31:10;18.00;;;6.88;;
55706;SDS011;41608;45.384;20.394;2022-10-16T15:33:37;11.90;;;6.43;;
55706;SDS011;41608;45.384;20.394;2022-10-16T15:36:03;16.70;;;7.00;;
55706;SDS011;41608;45.384;20.394;2022-10-16T15:38:29;9.52;;;6.97;;
55706;SDS011;41608;45.384;20.394;2022-10-16T15:40:55;17.95;;;7.70;;
55706;SDS011;41608;45.384;20.394;2022-10-16T15:43:21;14.68;;;8.82;;
55706;SDS011;41608;45.384;20.394;2022-10-16T15:45:58;13.90;;;9.23;;
55706;SDS011;41608;45.384;20.394;2022-10-16T15:48:25;15.65;;;8.32;;
55706;SDS011;41608;45.384;20.394;2022-10-16T15:50:51;20.45;;;9.02;;
55706;SDS011;41608;45.384;20.394;2022-10-16T15:53:17;15.90;;;9.90;;
55706;SDS011;41608;45.384;20.394;2022-10-16T15:55:43;18.45;;;8.85;;
55706;SDS011;41608;45.384;20.394;2022-10-16T15:58:14;19.70;;;8.98;;
55706;SDS011;41608;45.384;20.394;2022-10-16T16:00:40;30.38;;;10.45;;
55706;SDS011;41608;45.384;20.394;2022-10-16T16:03:06;16.80;;;9.85;;
55706;SDS011;41608;45.384;20.394;2022-10-16T16:05:37;14.32;;;10.38;;
55706;SDS011;41608;45.384;20.394;2022-10-16T16:08:03;19.73;;;9.82;;
55706;SDS011;41608;45.384;20.394;2022-10-16T16:10:29;17.58;;;9.73;;
55706;SDS011;41608;45.384;20.394;2022-10-16T16:12:55;19.05;;;10.32;;
55706;SDS011;41608;45.384;20.394;2022-10-16T16:15:22;23.77;;;11.10;;
55706;SDS011;41608;45.384;20.394;2022-10-16T16:17:48;16.33;;;10.00;;
55706;SDS011;41608;45.384;20.394;2022-10-16T16:20:14;20.40;;;10.07;;
55706;SDS011;41608;45.384;20.394;2022-10-16T16:22:41;23.75;;;11.23;;
55706;SDS011;41608;45.384;20.394;2022-10-16T16:25:07;24.30;;;12.70;;
55706;SDS011;41608;45.384;20.394;2022-10-16T16:27:33;21.67;;;11.20;;
55706;SDS011;41608;45.384;20.394;2022-10-16T16:30:01;17.65;;;10.75;;